CDT,Max TemperatureF,Mean TemperatureF,Min TemperatureF,Max Dew PointF,MeanDew PointF,Min DewpointF,Max Humidity, Mean Humidity, Min Humidity, Max Sea Level PressureIn, Mean Sea Level PressureIn, Min Sea Level PressureIn, Max VisibilityMiles, Mean VisibilityMiles, Min VisibilityMiles, Max Wind SpeedMPH, Mean Wind SpeedMPH, Max Gust SpeedMPH,PrecipitationIn, CloudCover, Events, WindDirDegrees
2013-9-1,88,80,71,71,68,63,87,67,46,29.96,29.85,29.78,10,9,4,26,7,35,0.04,2,Rain-Thunderstorm,252
2013-9-2,85,73,61,69,63,59,97,70,43,30.00,29.95,29.90,10,10,10,16,7,19,0.00,0,,357
2013-9-3,86,72,57,60,57,54,90,64,37,30.08,30.03,30.00,10,10,10,12,3,13,0.00,0,,54
2013-9-4,88,74,59,61,57,54,84,59,34,30.15,30.10,30.06,10,10,10,10,5,14,0.00,0,,100
2013-9-5,88,75,61,62,58,56,87,61,34,30.20,30.14,30.11,10,10,10,10,4,14,0.00,0,,136
2013-9-6,87,75,62,63,60,53,90,61,32,30.15,30.10,30.03,10,10,10,12,6,14,0.00,0,,153
2013-9-7,92,79,66,66,64,61,87,63,38,30.04,29.99,29.93,10,10,9,13,8,16,0.00,0,,179
2013-9-8,94,82,69,70,67,64,84,62,39,29.97,29.92,29.88,10,10,10,12,6,19,T,0,,183
2013-9-9,95,83,70,69,65,58,90,60,30,29.99,29.95,29.91,10,10,7,16,8,21,0.00,0,,195
2013-9-10,93,81,68,66,63,58,84,57,30,30.11,30.06,29.99,10,10,10,17,7,21,0.00,0,,196
2013-9-11,94,82,69,68,65,63,79,59,38,30.14,30.09,30.04,10,10,10,10,5,14,0.00,0,,195
2013-9-12,89,79,69,69,66,64,90,68,46,30.09,30.05,30.01,10,10,7,17,7,21,0.00,1,,7
2013-9-13,77,68,59,60,50,47,68,52,36,30.12,30.07,30.03,10,10,10,16,8,19,0.00,0,,43
2013-9-14,78,65,52,52,48,45,77,55,33,30.11,30.05,30.00,10,10,10,16,8,21,0.00,0,,139
2013-9-15,88,74,59,63,55,49,68,53,37,30.05,30.02,29.99,10,10,10,15,9,19,0.00,0,,169
2013-9-16,75,71,66,67,64,60,93,81,68,30.22,30.15,30.06,10,9,5,15,7,17,0.09,7,Rain-Thunderstorm,85
2013-9-17,79,72,64,67,64,61,93,76,58,30.18,30.12,30.02,10,8,3,17,9,22,0.38,5,Rain-Thunderstorm,145
2013-9-18,82,76,70,71,67,64,87,75,62,30.05,29.99,29.93,10,9,1,16,12,19,0.38,4,Rain-Thunderstorm,149
2013-9-19,90,80,69,69,67,65,87,67,47,29.98,29.93,29.86,10,10,9,28,13,38,0.38,2,Rain-Thunderstorm,181
2013-9-20,69,61,52,68,62,51,100,80,59,30.00,29.96,29.91,10,7,0,18,9,22,0.55,6,Fog-Rain-Thunderstorm,308
2013-9-21,73,61,48,51,47,43,93,65,37,30.02,29.97,29.93,10,10,10,17,6,21,0.00,0,,346
2013-9-22,76,61,46,51,47,43,86,62,38,30.00,29.94,29.89,10,10,10,13,5,16,0.00,0,,138
2013-9-23,77,64,51,55,51,48,89,66,43,29.94,29.90,29.83,10,10,10,21,10,27,0.00,0,,138
2013-9-24,77,68,59,60,56,55,84,67,50,29.88,29.84,29.81,10,10,10,18,9,22,0.03,3,,229
2013-9-25,79,67,54,60,57,52,93,71,48,29.88,29.85,29.82,10,10,7,10,4,14,0.00,1,,1
2013-9-26,82,70,58,62,59,56,93,70,46,29.96,29.92,29.85,10,10,9,18,10,23,0.00,0,,151
2013-9-27,84,75,65,64,62,57,93,68,43,30.02,29.96,29.92,10,10,10,21,12,26,0.00,0,,152
2013-9-28,76,68,59,67,63,59,100,82,64,30.07,29.98,29.91,10,8,2,21,12,29,0.33,7,,240
2013-9-29,74,64,54,59,54,50,100,72,44,30.09,30.03,29.95,10,9,3,14,7,17,0.00,3,,26
2013-9-30,77,66,55,64,61,53,100,78,56,29.95,29.92,29.85,10,8,0,16,9,20,0.00,5,Fog,158